sensor_id;sensor_type;location;lat;lon;timestamp;pressure;altitude;pressure_sealevel;temperature;humidity
50349;BME280;36250;48.740;22.174;2023-10-19T00:00:40;100315.38;;;4.42;75.32
50349;BME280;36250;48.740;22.174;2023-10-19T00:03:10;100310.59;;;4.51;74.06
50349;BME280;36250;48.740;22.174;2023-10-19T00:05:36;100309.38;;;4.47;75.02
50349;BME280;36250;48.740;22.174;2023-10-19T00:08:03;100314.13;;;4.51;74.91
50349;BME280;36250;48.740;22.174;2023-10-19T00:10:52;100301.06;;;4.55;74.12
50349;BME280;36250;48.740;22.174;2023-10-19T00:13:35;100297.13;;;4.57;74.52
50349;BME280;36250;48.740;22.174;2023-10-19T00:16:07;100299.63;;;4.59;73.79
50349;BME280;36250;48.740;22.174;2023-10-19T00:18:45;100288.44;;;4.62;74.10
50349;BME280;36250;48.740;22.174;2023-10-19T00:21:14;100294.22;;;4.65;74.36
50349;BME280;36250;48.740;22.174;2023-10-19T00:23:47;100292.13;;;4.68;73.37
50349;BME280;36250;48.740;22.174;2023-10-19T00:26:14;100292.53;;;4.78;73.78
50349;BME280;36250;48.740;22.174;2023-10-19T00:28:48;100290.66;;;4.91;73.79
50349;BME280;36250;48.740;22.174;2023-10-19T00:31:18;100288.72;;;5.05;73.50
50349;BME280;36250;48.740;22.174;2023-10-19T00:33:46;100281.66;;;5.10;72.94
50349;BME280;36250;48.740;22.174;2023-10-19T00:36:11;100281.22;;;5.20;73.06
50349;BME280;36250;48.740;22.174;2023-10-19T00:38:41;100287.81;;;5.24;72.79
50349;BME280;36250;48.740;22.174;2023-10-19T00:41:23;100284.09;;;5.18;71.74
50349;BME280;36250;48.740;22.174;2023-10-19T00:43:49;100274.81;;;5.08;71.99
50349;BME280;36250;48.740;22.174;2023-10-19T00:46:20;100273.19;;;5.00;71.96
50349;BME280;36250;48.740;22.174;2023-10-19T00:48:52;100277.31;;;5.03;71.32
50349;BME280;36250;48.740;22.174;2023-10-19T00:51:24;100258.88;;;5.00;71.66
50349;BME280;36250;48.740;22.174;2023-10-19T00:54:14;100259.09;;;4.98;71.67
50349;BME280;36250;48.740;22.174;2023-10-19T00:56:46;100267.81;;;4.94;71.32
50349;BME280;36250;48.740;22.174;2023-10-19T00:59:18;100257.44;;;4.91;72.06
50349;BME280;36250;48.740;22.174;2023-10-19T01:01:53;100250.81;;;4.87;71.76
50349;BME280;36250;48.740;22.174;2023-10-19T01:04:20;100233.41;;;4.83;71.34
50349;BME280;36250;48.740;22.174;2023-10-19T01:06:48;100246.88;;;4.83;72.41
50349;BME280;36250;48.740;22.174;2023-10-19T01:09:32;100231.53;;;4.83;71.91
50349;BME280;36250;48.740;22.174;2023-10-19T01:12:04;100226.16;;;4.83;72.22
50349;BME280;36250;48.740;22.174;2023-10-19T01:17:36;100231.34;;;4.78;73.01
50349;BME280;36250;48.740;22.174;2023-10-19T01:23:03;100222.00;;;4.81;73.08
50349;BME280;36250;48.740;22.174;2023-10-19T01:28:08;100204.16;;;4.86;72.79
50349;BME280;36250;48.740;22.174;2023-10-19T01:30:34;100203.72;;;4.89;72.61
50349;BME280;36250;48.740;22.174;2023-10-19T01:33:00;100201.41;;;4.93;72.46
50349;BME280;36250;48.740;22.174;2023-10-19T01:35:25;100195.59;;;4.96;73.24
50349;BME280;36250;48.740;22.174;2023-10-19T01:37:52;100193.09;;;5.01;72.87
50349;BME280;36250;48.740;22.174;2023-10-19T01:40:17;100183.53;;;5.05;73.42
50349;BME280;36250;48.740;22.174;2023-10-19T01:42:46;100194.50;;;5.10;73.10
50349;BME280;36250;48.740;22.174;2023-10-19T01:45:11;100197.38;;;5.15;72.91
50349;BME280;36250;48.740;22.174;2023-10-19T01:47:37;100197.25;;;5.03;72.04
50349;BME280;36250;48.740;22.174;2023-10-19T01:50:02;100195.66;;;4.83;71.45
50349;BME280;36250;48.740;22.174;2023-10-19T01:52:30;100191.94;;;4.77;71.85
50349;BME280;36250;48.740;22.174;2023-10-19T01:54:56;100187.78;;;4.75;71.55
50349;BME280;36250;48.740;22.174;2023-10-19T01:57:27;100179.88;;;4.80;72.36
50349;BME280;36250;48.740;22.174;2023-10-19T01:59:53;100185.28;;;4.86;72.06
50349;BME280;36250;48.740;22.174;2023-10-19T02:02:18;100177.38;;;4.91;71.64
50349;BME280;36250;48.740;22.174;2023-10-19T02:04:46;100182.09;;;5.02;71.96
50349;BME280;36250;48.740;22.174;2023-10-19T02:07:14;100173.31;;;5.13;72.49
50349;BME280;36250;48.740;22.174;2023-10-19T02:09:43;100171.41;;;5.20;71.51
50349;BME280;36250;48.740;22.174;2023-10-19T02:12:08;100161.00;;;5.24;71.45
50349;BME280;36250;48.740;22.174;2023-10-19T02:14:34;100172.59;;;5.31;71.89
50349;BME280;36250;48.740;22.174;2023-10-19T02:17:00;100176.91;;;5.39;71.76
50349;BME280;36250;48.740;22.174;2023-10-19T02:19:29;100172.75;;;5.43;71.99
50349;BME280;36250;48.740;22.174;2023-10-19T02:22:03;100169.16;;;5.49;71.42
50349;BME280;36250;48.740;22.174;2023-10-19T02:24:30;100161.63;;;5.57;71.64
50349;BME280;36250;48.740;22.174;2023-10-19T02:26:56;100164.03;;;5.65;71.58
50349;BME280;36250;48.740;22.174;2023-10-19T02:29:22;100167.50;;;5.72;71.92
50349;BME280;36250;48.740;22.174;2023-10-19T02:31:48;100164.38;;;5.75;71.69
50349;BME280;36250;48.740;22.174;2023-10-19T02:34:15;100164.00;;;5.72;71.64
50349;BME280;36250;48.740;22.174;2023-10-19T02:36:41;100166.06;;;5.76;71.50
50349;BME280;36250;48.740;22.174;2023-10-19T02:39:08;100146.88;;;5.84;70.78
50349;BME280;36250;48.740;22.174;2023-10-19T02:41:35;100155.16;;;5.89;70.53
50349;BME280;36250;48.740;22.174;2023-10-19T02:44:01;100147.09;;;5.83;70.16
50349;BME280;36250;48.740;22.174;2023-10-19T02:46:31;100154.81;;;5.79;70.47
50349;BME280;36250;48.740;22.174;2023-10-19T02:49:03;100147.72;;;5.85;70.79
50349;BME280;36250;48.740;22.174;2023-10-19T02:51:30;100151.81;;;5.94;71.04
50349;BME280;36250;48.740;22.174;2023-10-19T02:53:56;100140.50;;;6.04;70.85
50349;BME280;36250;48.740;22.174;2023-10-19T02:56:22;100129.84;;;6.09;70.90
50349;BME280;36250;48.740;22.174;2023-10-19T02:58:51;100144.13;;;6.16;70.99
50349;BME280;36250;48.740;22.174;2023-10-19T03:01:19;100126.25;;;6.15;71.01
50349;BME280;36250;48.740;22.174;2023-10-19T03:03:52;100129.38;;;6.12;71.04
50349;BME280;36250;48.740;22.174;2023-10-19T03:06:22;100129.19;;;6.13;71.37
50349;BME280;36250;48.740;22.174;2023-10-19T03:08:48;100131.66;;;6.15;71.43
50349;BME280;36250;48.740;22.174;2023-10-19T03:11:25;100138.72;;;6.16;70.68
50349;BME280;36250;48.740;22.174;2023-10-19T03:13:50;100139.28;;;6.00;71.63
50349;BME280;36250;48.740;22.174;2023-10-19T03:16:17;100144.00;;;6.04;71.38
50349;BME280;36250;48.740;22.174;2023-10-19T03:18:44;100136.69;;;6.11;71.15
50349;BME280;36250;48.740;22.174;2023-10-19T03:21:09;100139.16;;;6.13;71.48
50349;BME280;36250;48.740;22.174;2023-10-19T03:23:36;100131.22;;;6.18;71.43
50349;BME280;36250;48.740;22.174;2023-10-19T03:26:02;100133.22;;;6.22;71.94
50349;BME280;36250;48.740;22.174;2023-10-19T03:28:48;100121.06;;;6.31;71.83
50349;BME280;36250;48.740;22.174;2023-10-19T03:31:14;100117.69;;;6.36;71.53
50349;BME280;36250;48.740;22.174;2023-10-19T03:33:51;100116.81;;;6.42;71.55
50349;BME280;36250;48.740;22.174;2023-10-19T03:36:24;100107.66;;;6.43;71.20
50349;BME280;36250;48.740;22.174;2023-10-19T03:38:50;100108.09;;;6.40;71.25
50349;BME280;36250;48.740;22.174;2023-10-19T03:41:18;100104.72;;;6.44;71.77
50349;BME280;36250;48.740;22.174;2023-10-19T03:43:48;100101.78;;;6.46;71.81
50349;BME280;36250;48.740;22.174;2023-10-19T03:46:14;100092.63;;;6.47;71.53
50349;BME280;36250;48.740;22.174;2023-10-19T03:48:47;100086.28;;;6.53;71.34
50349;BME280;36250;48.740;22.174;2023-10-19T03:51:13;100089.16;;;6.58;71.70
50349;BME280;36250;48.740;22.174;2023-10-19T03:53:39;100099.69;;;6.48;71.69
50349;BME280;36250;48.740;22.174;2023-10-19T03:56:08;100091.28;;;6.38;72.22
50349;BME280;36250;48.740;22.174;2023-10-19T03:58:36;100083.78;;;6.40;72.19
50349;BME280;36250;48.740;22.174;2023-10-19T04:01:03;100086.41;;;6.28;72.20
50349;BME280;36250;48.740;22.174;2023-10-19T04:03:30;100072.94;;;6.22;73.15
50349;BME280;36250;48.740;22.174;2023-10-19T04:05:56;100065.72;;;6.34;73.23
50349;BME280;36250;48.740;22.174;2023-10-19T04:08:22;100047.41;;;6.36;73.25
50349;BME280;36250;48.740;22.174;2023-10-19T04:10:51;100047.59;;;6.23;73.42
50349;BME280;36250;48.740;22.174;2023-10-19T04:13:35;100045.78;;;6.35;73.04
50349;BME280;36250;48.740;22.174;2023-10-19T04:16:02;100028.97;;;6.33;73.26
50349;BME280;36250;48.740;22.174;2023-10-19T04:18:28;100023.69;;;6.38;72.75
50349;BME280;36250;48.740;22.174;2023-10-19T04:20:54;100018.66;;;6.41;73.77
50349;BME280;36250;48.740;22.174;2023-10-19T04:23:22;100015.41;;;6.51;72.70
50349;BME280;36250;48.740;22.174;2023-10-19T04:25:52;100016.00;;;6.53;72.67
50349;BME280;36250;48.740;22.174;2023-10-19T04:28:18;100009.22;;;6.62;72.56
50349;BME280;36250;48.740;22.174;2023-10-19T04:30:55;99995.59;;;6.69;72.85
50349;BME280;36250;48.740;22.174;2023-10-19T04:33:20;99999.41;;;6.79;72.81
50349;BME280;36250;48.740;22.174;2023-10-19T04:35:48;100002.72;;;6.81;72.82
50349;BME280;36250;48.740;22.174;2023-10-19T04:38:20;99998.03;;;6.88;72.54
50349;BME280;36250;48.740;22.174;2023-10-19T04:40:46;99997.44;;;6.86;72.17
50349;BME280;36250;48.740;22.174;2023-10-19T04:43:11;99987.19;;;6.88;72.97
50349;BME280;36250;48.740;22.174;2023-10-19T04:45:39;99984.69;;;6.75;73.02
50349;BME280;36250;48.740;22.174;2023-10-19T04:48:05;99981.78;;;6.77;73.11
50349;BME280;36250;48.740;22.174;2023-10-19T04:50:31;99969.06;;;6.77;73.06
50349;BME280;36250;48.740;22.174;2023-10-19T04:52:56;99970.13;;;6.76;72.68
50349;BME280;36250;48.740;22.174;2023-10-19T04:55:22;99975.22;;;6.84;72.94
50349;BME280;36250;48.740;22.174;2023-10-19T04:57:47;99983.59;;;6.94;72.89
50349;BME280;36250;48.740;22.174;2023-10-19T05:00:13;99987.47;;;6.98;72.56
50349;BME280;36250;48.740;22.174;2023-10-19T05:02:39;99985.91;;;6.91;72.90
50349;BME280;36250;48.740;22.174;2023-10-19T05:05:05;99969.78;;;6.84;73.12
50349;BME280;36250;48.740;22.174;2023-10-19T05:07:30;99980.88;;;6.94;73.50
50349;BME280;36250;48.740;22.174;2023-10-19T05:09:56;99970.06;;;6.94;73.47
50349;BME280;36250;48.740;22.174;2023-10-19T05:12:21;99973.44;;;6.90;73.58
50349;BME280;36250;48.740;22.174;2023-10-19T05:14:46;99977.34;;;6.94;74.01
50349;BME280;36250;48.740;22.174;2023-10-19T05:17:12;99975.22;;;6.96;73.92
50349;BME280;36250;48.740;22.174;2023-10-19T05:19:39;99979.34;;;6.98;74.15
50349;BME280;36250;48.740;22.174;2023-10-19T05:22:06;99981.81;;;7.00;73.92
50349;BME280;36250;48.740;22.174;2023-10-19T05:24:32;99973.94;;;6.98;74.32
50349;BME280;36250;48.740;22.174;2023-10-19T05:26:58;99963.25;;;7.03;74.22
50349;BME280;36250;48.740;22.174;2023-10-19T05:29:23;99965.69;;;7.05;74.59
50349;BME280;36250;48.740;22.174;2023-10-19T05:31:50;99965.25;;;7.08;74.67
50349;BME280;36250;48.740;22.174;2023-10-19T05:34:19;99960.66;;;7.20;74.68
50349;BME280;36250;48.740;22.174;2023-10-19T05:36:45;99965.28;;;7.31;74.72
50349;BME280;36250;48.740;22.174;2023-10-19T05:39:14;99959.63;;;7.33;74.48
50349;BME280;36250;48.740;22.174;2023-10-19T05:41:39;99958.06;;;7.37;74.22
50349;BME280;36250;48.740;22.174;2023-10-19T05:44:05;99954.78;;;7.35;74.52
50349;BME280;36250;48.740;22.174;2023-10-19T05:46:30;99970.00;;;7.36;74.54
50349;BME280;36250;48.740;22.174;2023-10-19T05:48:57;99961.97;;;7.29;74.85
50349;BME280;36250;48.740;22.174;2023-10-19T05:51:23;99962.44;;;7.38;74.97
50349;BME280;36250;48.740;22.174;2023-10-19T05:53:48;99964.44;;;7.42;74.60
50349;BME280;36250;48.740;22.174;2023-10-19T05:56:14;99964.56;;;7.47;74.87
50349;BME280;36250;48.740;22.174;2023-10-19T05:58:41;99957.38;;;7.53;74.80
50349;BME280;36250;48.740;22.174;2023-10-19T06:01:07;99959.84;;;7.54;74.61
50349;BME280;36250;48.740;22.174;2023-10-19T06:03:32;99966.09;;;7.55;74.67
50349;BME280;36250;48.740;22.174;2023-10-19T06:05:57;99970.56;;;7.61;74.54
50349;BME280;36250;48.740;22.174;2023-10-19T06:08:23;99975.38;;;7.70;74.47
50349;BME280;36250;48.740;22.174;2023-10-19T06:10:51;99976.09;;;7.77;74.23
50349;BME280;36250;48.740;22.174;2023-10-19T06:13:17;99961.34;;;7.85;74.34
50349;BME280;36250;48.740;22.174;2023-10-19T06:15:43;99968.16;;;7.99;74.02
50349;BME280;36250;48.740;22.174;2023-10-19T06:18:08;99977.56;;;8.08;73.64
50349;BME280;36250;48.740;22.174;2023-10-19T06:20:35;99974.38;;;8.11;73.48
50349;BME280;36250;48.740;22.174;2023-10-19T06:23:01;99972.25;;;8.13;73.07
50349;BME280;36250;48.740;22.174;2023-10-19T06:25:30;99966.69;;;8.20;73.06
50349;BME280;36250;48.740;22.174;2023-10-19T06:27:56;99966.19;;;8.23;72.70
50349;BME280;36250;48.740;22.174;2023-10-19T06:30:25;99965.84;;;8.19;72.28
50349;BME280;36250;48.740;22.174;2023-10-19T06:32:56;99967.75;;;8.19;72.56
50349;BME280;36250;48.740;22.174;2023-10-19T06:35:22;99967.50;;;8.20;72.35
50349;BME280;36250;48.740;22.174;2023-10-19T06:37:48;99953.94;;;8.20;72.08
50349;BME280;36250;48.740;22.174;2023-10-19T06:40:15;99949.19;;;8.39;72.25
50349;BME280;36250;48.740;22.174;2023-10-19T06:42:42;99948.66;;;8.53;71.85
50349;BME280;36250;48.740;22.174;2023-10-19T06:45:08;99937.84;;;8.70;71.54
50349;BME280;36250;48.740;22.174;2023-10-19T06:47:35;99935.72;;;8.89;71.23
50349;BME280;36250;48.740;22.174;2023-10-19T06:50:05;99928.66;;;9.04;70.12
50349;BME280;36250;48.740;22.174;2023-10-19T06:52:33;99936.06;;;9.09;69.44
50349;BME280;36250;48.740;22.174;2023-10-19T06:55:01;99922.00;;;9.12;69.59
50349;BME280;36250;48.740;22.174;2023-10-19T06:57:27;99918.38;;;9.23;69.08
50349;BME280;36250;48.740;22.174;2023-10-19T06:59:52;99915.16;;;9.26;68.50
50349;BME280;36250;48.740;22.174;2023-10-19T07:02:18;99914.00;;;9.22;68.81
50349;BME280;36250;48.740;22.174;2023-10-19T07:04:45;99915.56;;;9.18;68.35
50349;BME280;36250;48.740;22.174;2023-10-19T07:07:12;99920.19;;;9.17;68.78
50349;BME280;36250;48.740;22.174;2023-10-19T07:09:38;99913.13;;;9.16;69.04
50349;BME280;36250;48.740;22.174;2023-10-19T07:12:04;99914.75;;;9.17;69.04
50349;BME280;36250;48.740;22.174;2023-10-19T07:14:32;99907.16;;;9.19;68.91
50349;BME280;36250;48.740;22.174;2023-10-19T07:16:58;99908.44;;;9.12;69.51
50349;BME280;36250;48.740;22.174;2023-10-19T07:19:23;99906.28;;;9.14;69.36
50349;BME280;36250;48.740;22.174;2023-10-19T07:21:48;99909.38;;;9.22;69.42
50349;BME280;36250;48.740;22.174;2023-10-19T07:24:16;99905.63;;;9.23;69.24
50349;BME280;36250;48.740;22.174;2023-10-19T07:26:44;99907.44;;;9.18;69.95
50349;BME280;36250;48.740;22.174;2023-10-19T07:29:19;99912.00;;;9.34;69.90
50349;BME280;36250;48.740;22.174;2023-10-19T07:31:45;99907.25;;;9.41;69.80
50349;BME280;36250;48.740;22.174;2023-10-19T07:34:10;99914.38;;;9.47;69.93
50349;BME280;36250;48.740;22.174;2023-10-19T07:36:40;99906.72;;;9.44;69.71
50349;BME280;36250;48.740;22.174;2023-10-19T07:39:07;99911.41;;;9.49;69.90
50349;BME280;36250;48.740;22.174;2023-10-19T07:41:39;99909.66;;;9.59;69.84
50349;BME280;36250;48.740;22.174;2023-10-19T07:44:05;99919.47;;;9.60;69.46
50349;BME280;36250;48.740;22.174;2023-10-19T07:46:30;99928.97;;;9.41;70.80
50349;BME280;36250;48.740;22.174;2023-10-19T07:48:57;99928.31;;;9.34;71.06
50349;BME280;36250;48.740;22.174;2023-10-19T07:51:24;99931.28;;;9.33;71.05
50349;BME280;36250;48.740;22.174;2023-10-19T07:53:50;99925.66;;;9.39;70.83
50349;BME280;36250;48.740;22.174;2023-10-19T07:56:16;99923.34;;;9.48;71.18
50349;BME280;36250;48.740;22.174;2023-10-19T07:58:42;99920.53;;;9.59;70.57
50349;BME280;36250;48.740;22.174;2023-10-19T08:01:07;99934.25;;;9.69;70.43
50349;BME280;36250;48.740;22.174;2023-10-19T08:03:33;99932.03;;;9.66;70.13
50349;BME280;36250;48.740;22.174;2023-10-19T08:05:59;99934.13;;;9.59;70.71
50349;BME280;36250;48.740;22.174;2023-10-19T08:08:24;99930.56;;;9.59;70.88
50349;BME280;36250;48.740;22.174;2023-10-19T08:10:49;99932.09;;;9.71;71.05
50349;BME280;36250;48.740;22.174;2023-10-19T08:13:15;99936.63;;;9.82;70.26
50349;BME280;36250;48.740;22.174;2023-10-19T08:15:40;99934.13;;;10.03;69.73
50349;BME280;36250;48.740;22.174;2023-10-19T08:18:06;99928.38;;;10.16;68.44
50349;BME280;36250;48.740;22.174;2023-10-19T08:20:31;99930.63;;;10.24;67.91
50349;BME280;36250;48.740;22.174;2023-10-19T08:22:58;99926.38;;;10.33;67.17
50349;BME280;36250;48.740;22.174;2023-10-19T08:25:25;99921.56;;;10.40;66.75
50349;BME280;36250;48.740;22.174;2023-10-19T08:27:52;99924.13;;;10.51;66.43
50349;BME280;36250;48.740;22.174;2023-10-19T08:30:22;99920.66;;;10.56;65.96
50349;BME280;36250;48.740;22.174;2023-10-19T08:32:47;99915.00;;;10.63;65.84
50349;BME280;36250;48.740;22.174;2023-10-19T08:35:14;99905.84;;;10.74;65.71
50349;BME280;36250;48.740;22.174;2023-10-19T08:37:40;99904.53;;;10.81;65.39
50349;BME280;36250;48.740;22.174;2023-10-19T08:40:14;99903.75;;;10.86;64.65
50349;BME280;36250;48.740;22.174;2023-10-19T08:42:41;99903.06;;;10.95;64.26
50349;BME280;36250;48.740;22.174;2023-10-19T08:45:08;99908.78;;;10.99;63.43
50349;BME280;36250;48.740;22.174;2023-10-19T08:47:42;99896.03;;;11.04;63.13
50349;BME280;36250;48.740;22.174;2023-10-19T08:50:08;99888.97;;;11.08;62.43
50349;BME280;36250;48.740;22.174;2023-10-19T08:52:36;99891.50;;;11.15;62.65
50349;BME280;36250;48.740;22.174;2023-10-19T08:55:03;99904.56;;;11.18;62.34
50349;BME280;36250;48.740;22.174;2023-10-19T08:57:29;99909.78;;;11.19;61.46
50349;BME280;36250;48.740;22.174;2023-10-19T08:59:54;99911.69;;;11.19;61.69
50349;BME280;36250;48.740;22.174;2023-10-19T09:02:23;99913.28;;;11.15;61.84
50349;BME280;36250;48.740;22.174;2023-10-19T09:04:49;99920.09;;;11.12;61.43
50349;BME280;36250;48.740;22.174;2023-10-19T09:07:16;99909.69;;;11.09;61.84
50349;BME280;36250;48.740;22.174;2023-10-19T09:09:41;99905.88;;;11.10;62.51
50349;BME280;36250;48.740;22.174;2023-10-19T09:12:07;99902.59;;;11.08;63.63
50349;BME280;36250;48.740;22.174;2023-10-19T09:14:34;99902.50;;;10.98;63.58
50349;BME280;36250;48.740;22.174;2023-10-19T09:17:06;99899.41;;;10.85;64.77
50349;BME280;36250;48.740;22.174;2023-10-19T09:19:44;99901.03;;;10.81;66.15
50349;BME280;36250;48.740;22.174;2023-10-19T09:22:12;99900.38;;;10.74;67.41
50349;BME280;36250;48.740;22.174;2023-10-19T09:24:47;99898.41;;;10.64;67.89
50349;BME280;36250;48.740;22.174;2023-10-19T09:27:16;99903.28;;;10.62;68.94
50349;BME280;36250;48.740;22.174;2023-10-19T09:29:42;99901.38;;;10.63;69.15
50349;BME280;36250;48.740;22.174;2023-10-19T09:32:08;99903.34;;;10.67;69.26
50349;BME280;36250;48.740;22.174;2023-10-19T09:34:34;99898.72;;;10.68;70.07
50349;BME280;36250;48.740;22.174;2023-10-19T09:37:00;99902.50;;;10.67;70.48
50349;BME280;36250;48.740;22.174;2023-10-19T09:39:29;99895.72;;;10.69;71.41
50349;BME280;36250;48.740;22.174;2023-10-19T09:42:05;99900.34;;;10.69;71.48
50349;BME280;36250;48.740;22.174;2023-10-19T09:44:39;99892.44;;;10.67;71.90
50349;BME280;36250;48.740;22.174;2023-10-19T09:47:10;99892.44;;;10.67;72.16
50349;BME280;36250;48.740;22.174;2023-10-19T09:49:37;99874.44;;;10.61;72.50
50349;BME280;36250;48.740;22.174;2023-10-19T09:52:03;99869.78;;;10.62;72.88
50349;BME280;36250;48.740;22.174;2023-10-19T09:54:50;99863.50;;;10.56;73.32
50349;BME280;36250;48.740;22.174;2023-10-19T09:57:27;99863.41;;;10.46;73.94
50349;BME280;36250;48.740;22.174;2023-10-19T10:00:00;99838.25;;;10.34;74.55
50349;BME280;36250;48.740;22.174;2023-10-19T10:02:34;99842.41;;;10.41;75.38
50349;BME280;36250;48.740;22.174;2023-10-19T10:05:00;99842.72;;;10.45;75.58
50349;BME280;36250;48.740;22.174;2023-10-19T10:07:26;99845.97;;;10.47;76.04
50349;BME280;36250;48.740;22.174;2023-10-19T10:09:52;99847.09;;;10.46;76.34
50349;BME280;36250;48.740;22.174;2023-10-19T10:12:23;99849.25;;;10.49;76.95
50349;BME280;36250;48.740;22.174;2023-10-19T10:17:37;99837.91;;;10.57;76.87
50349;BME280;36250;48.740;22.174;2023-10-19T10:22:36;99827.06;;;10.62;77.28
50349;BME280;36250;48.740;22.174;2023-10-19T10:25:02;99821.91;;;10.61;77.06
50349;BME280;36250;48.740;22.174;2023-10-19T10:27:27;99824.06;;;10.59;77.61
50349;BME280;36250;48.740;22.174;2023-10-19T10:29:56;99804.69;;;10.55;77.62
50349;BME280;36250;48.740;22.174;2023-10-19T10:32:52;99804.69;;;10.55;77.70
50349;BME280;36250;48.740;22.174;2023-10-19T10:38:07;99792.66;;;10.46;78.02
50349;BME280;36250;48.740;22.174;2023-10-19T10:43:08;99785.34;;;10.51;78.85
50349;BME280;36250;48.740;22.174;2023-10-19T10:45:35;99773.69;;;10.56;79.01
50349;BME280;36250;48.740;22.174;2023-10-19T10:48:01;99763.09;;;10.60;78.54
50349;BME280;36250;48.740;22.174;2023-10-19T10:50:27;99761.75;;;10.62;78.63
50349;BME280;36250;48.740;22.174;2023-10-19T10:52:55;99766.13;;;10.63;78.55
50349;BME280;36250;48.740;22.174;2023-10-19T10:55:23;99759.81;;;10.57;78.76
50349;BME280;36250;48.740;22.174;2023-10-19T10:57:51;99757.38;;;10.56;79.02
50349;BME280;36250;48.740;22.174;2023-10-19T11:00:16;99748.94;;;10.57;78.54
50349;BME280;36250;48.740;22.174;2023-10-19T11:02:45;99749.81;;;10.63;79.21
50349;BME280;36250;48.740;22.174;2023-10-19T11:05:20;99743.25;;;10.64;78.55
50349;BME280;36250;48.740;22.174;2023-10-19T11:10:30;99735.66;;;10.66;78.86
50349;BME280;36250;48.740;22.174;2023-10-19T11:13:03;99735.09;;;10.64;79.56
50349;BME280;36250;48.740;22.174;2023-10-19T11:15:29;99735.09;;;10.64;79.58
50349;BME280;36250;48.740;22.174;2023-10-19T11:17:55;99724.50;;;10.68;79.82
50349;BME280;36250;48.740;22.174;2023-10-19T11:20:22;99720.97;;;10.67;79.96
50349;BME280;36250;48.740;22.174;2023-10-19T11:22:49;99715.56;;;10.72;79.83
50349;BME280;36250;48.740;22.174;2023-10-19T11:25:23;99705.22;;;10.74;80.34
50349;BME280;36250;48.740;22.174;2023-10-19T11:27:48;99709.63;;;10.80;80.32
50349;BME280;36250;48.740;22.174;2023-10-19T11:32:50;99709.69;;;10.90;80.50
50349;BME280;36250;48.740;22.174;2023-10-19T11:35:22;99710.78;;;10.94;80.45
50349;BME280;36250;48.740;22.174;2023-10-19T11:37:51;99706.16;;;10.95;80.46
50349;BME280;36250;48.740;22.174;2023-10-19T11:40:19;99701.28;;;10.97;80.05
50349;BME280;36250;48.740;22.174;2023-10-19T11:42:45;99687.13;;;11.00;80.26
50349;BME280;36250;48.740;22.174;2023-10-19T11:45:10;99690.09;;;10.98;80.20
50349;BME280;36250;48.740;22.174;2023-10-19T11:47:39;99680.34;;;11.02;80.70
50349;BME280;36250;48.740;22.174;2023-10-19T11:50:06;99667.78;;;11.01;80.36
50349;BME280;36250;48.740;22.174;2023-10-19T11:52:32;99674.34;;;11.05;80.53
50349;BME280;36250;48.740;22.174;2023-10-19T11:54:58;99665.09;;;11.06;80.78
50349;BME280;36250;48.740;22.174;2023-10-19T11:57:24;99656.63;;;11.08;80.90
50349;BME280;36250;48.740;22.174;2023-10-19T11:59:50;99653.94;;;11.13;81.10
50349;BME280;36250;48.740;22.174;2023-10-19T12:02:21;99648.78;;;11.16;80.93
50349;BME280;36250;48.740;22.174;2023-10-19T12:04:47;99645.50;;;11.14;81.16
50349;BME280;36250;48.740;22.174;2023-10-19T12:07:12;99637.34;;;11.19;81.58
50349;BME280;36250;48.740;22.174;2023-10-19T12:09:37;99633.03;;;11.29;81.41
50349;BME280;36250;48.740;22.174;2023-10-19T12:12:06;99643.94;;;11.34;81.12
50349;BME280;36250;48.740;22.174;2023-10-19T12:14:32;99634.94;;;11.38;81.13
50349;BME280;36250;48.740;22.174;2023-10-19T12:17:00;99632.50;;;11.37;81.00
50349;BME280;36250;48.740;22.174;2023-10-19T12:19:29;99623.22;;;11.38;81.39
50349;BME280;36250;48.740;22.174;2023-10-19T12:21:55;99619.97;;;11.41;81.14
50349;BME280;36250;48.740;22.174;2023-10-19T12:24:20;99618.31;;;11.45;81.36
50349;BME280;36250;48.740;22.174;2023-10-19T12:26:46;99623.22;;;11.43;80.90
50349;BME280;36250;48.740;22.174;2023-10-19T12:29:12;99624.34;;;11.47;81.32
50349;BME280;36250;48.740;22.174;2023-10-19T12:31:39;99621.06;;;11.50;80.94
50349;BME280;36250;48.740;22.174;2023-10-19T12:34:06;99613.16;;;11.48;81.38
50349;BME280;36250;48.740;22.174;2023-10-19T12:36:32;99615.59;;;11.50;80.87
50349;BME280;36250;48.740;22.174;2023-10-19T12:38:57;99609.34;;;11.49;81.34
50349;BME280;36250;48.740;22.174;2023-10-19T12:41:23;99605.00;;;11.48;81.08
50349;BME280;36250;48.740;22.174;2023-10-19T12:43:53;99594.91;;;11.44;81.01
50349;BME280;36250;48.740;22.174;2023-10-19T12:46:23;99592.72;;;11.46;81.31
50349;BME280;36250;48.740;22.174;2023-10-19T12:48:58;99588.34;;;11.40;81.21
50349;BME280;36250;48.740;22.174;2023-10-19T12:51:24;99585.06;;;11.38;80.99
50349;BME280;36250;48.740;22.174;2023-10-19T12:53:53;99574.44;;;11.31;80.79
50349;BME280;36250;48.740;22.174;2023-10-19T12:56:20;99576.88;;;11.28;81.32
50349;BME280;36250;48.740;22.174;2023-10-19T12:58:45;99561.63;;;11.27;81.33
50349;BME280;36250;48.740;22.174;2023-10-19T13:01:10;99552.94;;;11.25;80.85
50349;BME280;36250;48.740;22.174;2023-10-19T13:03:45;99540.38;;;11.29;81.46
50349;BME280;36250;48.740;22.174;2023-10-19T13:06:11;99540.94;;;11.31;81.28
50349;BME280;36250;48.740;22.174;2023-10-19T13:08:37;99538.50;;;11.29;81.05
50349;BME280;36250;48.740;22.174;2023-10-19T13:11:06;99539.31;;;11.30;80.69
50349;BME280;36250;48.740;22.174;2023-10-19T13:13:32;99539.56;;;11.28;80.71
50349;BME280;36250;48.740;22.174;2023-10-19T13:15:57;99531.41;;;11.33;80.83
50349;BME280;36250;48.740;22.174;2023-10-19T13:18:22;99527.31;;;11.36;80.58
50349;BME280;36250;48.740;22.174;2023-10-19T13:20:55;99529.50;;;11.34;80.97